Time;durP1;ratioP1;P1;durP2;ratioP2;P2;SDS_P1;SDS_P2;PMS_P1;PMS_P2;Temp;Humidity;BMP_temperature;BMP_pressure;BME280_temperature;BME280_humidity;BME280_pressure;Samples;Min_cycle;Max_cycle;Signal;HPM_P1;HPM_P2
2023/10/05 00:02:20;;;;;;;7.43;3.80;;;;;;;8.60;100.00;101477.84;4989917;28;20296;-69
2023/10/05 00:04:42;;;;;;;10.77;3.60;;;;;;;8.59;100.00;101477.78;4988470;28;20290;-69
2023/10/05 00:07:19;;;;;;;7.17;3.47;;;;;;;8.51;100.00;101482.78;4978238;28;20291;-70
2023/10/05 00:09:47;;;;;;;6.77;3.47;;;;;;;8.47;100.00;101472.94;4988492;28;20203;-69
2023/10/05 00:12:20;;;;;;;9.67;3.47;;;;;;;8.41;100.00;101465.69;4988729;28;20208;-68
2023/10/05 00:14:49;;;;;;;7.50;3.40;;;;;;;8.34;100.00;101476.81;4987481;28;20204;-68
2023/10/05 00:17:19;;;;;;;10.33;3.27;;;;;;;8.33;100.00;101482.00;4971853;28;20203;-67
2023/10/05 00:19:46;;;;;;;6.30;3.03;;;;;;;8.30;100.00;101481.88;4991912;28;20295;-68
2023/10/05 00:22:12;;;;;;;7.00;3.17;;;;;;;8.41;100.00;101476.25;4989182;28;20233;-69
2023/10/05 00:24:40;;;;;;;8.67;3.27;;;;;;;8.44;100.00;101468.44;4984781;28;20257;-68
2023/10/05 00:27:09;;;;;;;8.63;3.90;;;;;;;8.46;100.00;101471.16;4992358;28;20314;-70
2023/10/05 00:29:49;;;;;;;8.30;3.43;;;;;;;8.35;100.00;101454.88;4974082;28;20246;-69
2023/10/05 00:32:15;;;;;;;6.37;3.03;;;;;;;8.30;100.00;101459.03;4982938;28;20209;-67
2023/10/05 00:34:44;;;;;;;13.30;3.10;;;;;;;8.28;100.00;101457.19;4969793;28;20203;-68
2023/10/05 00:37:11;;;;;;;8.43;3.47;;;;;;;8.29;100.00;101458.97;4984501;28;20573;-70
2023/10/05 00:39:39;;;;;;;9.33;3.60;;;;;;;8.22;100.00;101451.66;4989554;28;20249;-69
2023/10/05 00:42:11;;;;;;;6.17;2.97;;;;;;;8.17;100.00;101441.81;4989499;28;20937;-69
2023/10/05 00:44:40;;;;;;;5.97;3.07;;;;;;;8.23;100.00;101442.91;4985898;28;20204;-70
2023/10/05 00:47:07;;;;;;;7.17;3.33;;;;;;;8.26;100.00;101446.56;4985984;28;20236;-69
2023/10/05 00:49:45;;;;;;;9.70;3.43;;;;;;;8.21;100.00;101440.19;4990874;28;20694;-69
2023/10/05 00:52:15;;;;;;;10.87;3.60;;;;;;;8.13;100.00;101439.91;4973632;28;20245;-69
2023/10/05 00:54:45;;;;;;;8.70;3.33;;;;;;;8.17;100.00;101457.66;4988290;28;20221;-70
2023/10/05 00:57:15;;;;;;;9.50;3.50;;;;;;;8.18;100.00;101448.00;4986873;28;20208;-69
2023/10/05 00:59:47;;;;;;;5.87;3.17;;;;;;;8.21;100.00;101436.66;4989582;28;20211;-69
2023/10/05 01:02:20;;;;;;;7.80;3.00;;;;;;;8.16;100.00;101440.03;4990402;28;20240;-69
2023/10/05 01:07:18;;;;;;;10.80;4.00;;;;;;;8.17;100.00;101431.28;4993046;28;20312;-69
2023/10/05 01:12:35;;;;;;;8.53;3.67;;;;;;;8.35;100.00;101420.56;4990241;28;20301;-69
2023/10/05 01:15:05;;;;;;;8.17;3.77;;;;;;;8.38;100.00;101431.22;4990035;28;20288;-68
2023/10/05 01:17:35;;;;;;;10.33;3.80;;;;;;;8.30;100.00;101419.44;4987842;28;20385;-68
2023/10/05 01:20:12;;;;;;;7.90;3.00;;;;;;;8.24;100.00;101419.22;4990599;28;20231;-66
2023/10/05 01:22:39;;;;;;;7.67;3.37;;;;;;;8.28;100.00;101423.75;4989625;28;20672;-69
2023/10/05 01:25:08;;;;;;;9.13;3.23;;;;;;;8.36;100.00;101434.66;4983450;28;20208;-68
2023/10/05 01:27:40;;;;;;;7.57;3.67;;;;;;;8.41;100.00;101441.03;4972363;28;20221;-69
2023/10/05 01:30:07;;;;;;;7.30;3.70;;;;;;;8.51;100.00;101443.19;4987241;28;20367;-70
2023/10/05 01:32:34;;;;;;;11.50;4.20;;;;;;;8.54;100.00;101442.41;4986210;28;20291;-68
2023/10/05 01:35:08;;;;;;;9.33;3.73;;;;;;;8.63;100.00;101440.09;4985559;28;20203;-69
2023/10/05 01:37:39;;;;;;;8.87;3.30;;;;;;;8.73;100.00;101435.22;4966555;28;20220;-69
2023/10/05 01:40:20;;;;;;;5.70;3.07;;;;;;;8.69;100.00;101441.22;4985597;28;20206;-68
2023/10/05 01:42:48;;;;;;;8.00;3.70;;;;;;;8.69;100.00;101443.88;4991054;28;20207;-68
2023/10/05 01:45:16;;;;;;;7.83;3.50;;;;;;;8.63;100.00;101443.66;4970886;28;20717;-70
2023/10/05 01:47:45;;;;;;;8.10;3.33;;;;;;;8.60;100.00;101434.72;4990265;28;20287;-69
2023/10/05 01:50:18;;;;;;;7.37;3.10;;;;;;;8.63;100.00;101438.38;4965745;28;20206;-69
2023/10/05 01:53:08;;;;;;;7.93;3.50;;;;;;;8.63;100.00;101438.38;4989007;28;20229;-70
2023/10/05 01:55:36;;;;;;;10.43;3.80;;;;;;;8.68;100.00;101431.50;4990000;28;20258;-69
2023/10/05 01:58:08;;;;;;;9.70;3.23;;;;;;;8.64;100.00;101412.84;4990228;28;20312;-65
2023/10/05 02:00:38;;;;;;;8.63;3.20;;;;;;;8.63;100.00;101413.69;4987816;28;20285;-68
2023/10/05 02:03:09;;;;;;;8.53;3.20;;;;;;;8.63;100.00;101411.97;4986956;28;20289;-68
2023/10/05 02:05:36;;;;;;;8.47;3.63;;;;;;;8.65;100.00;101425.22;4988530;28;20197;-68
2023/10/05 02:08:04;;;;;;;8.83;3.40;;;;;;;8.65;100.00;101423.47;4990548;28;20227;-65
2023/10/05 02:10:39;;;;;;;7.23;3.33;;;;;;;8.59;100.00;101417.97;4989184;28;20211;-69
2023/10/05 02:13:11;;;;;;;10.00;3.50;;;;;;;8.57;100.00;101422.28;4985641;28;20218;-69
2023/10/05 02:15:39;;;;;;;10.33;3.67;;;;;;;8.63;100.00;101414.59;4970600;28;20201;-69
2023/10/05 02:18:40;;;;;;;7.97;3.20;;;;;;;8.66;100.00;101421.72;5010312;22;20543;-69
2023/10/05 02:21:07;;;;;;;10.80;3.40;;;;;;;8.61;100.00;101410.09;5032480;28;20233;-71
2023/10/05 02:23:41;;;;;;;9.07;3.00;;;;;;;8.66;100.00;101419.09;5041102;28;20676;-70
2023/10/05 02:26:23;;;;;;;5.23;3.00;;;;;;;8.60;100.00;101418.88;5042986;28;20224;-72
2023/10/05 02:28:51;;;;;;;6.60;3.57;;;;;;;8.63;100.00;101411.06;5034988;28;20231;-69
2023/10/05 02:31:20;;;;;;;7.00;3.30;;;;;;;8.61;100.00;101421.56;5042193;28;20292;-68
2023/10/05 02:33:47;;;;;;;10.67;3.77;;;;;;;8.57;100.00;101424.94;5022703;28;20635;-69
2023/10/05 02:36:20;;;;;;;7.90;3.20;;;;;;;8.61;100.00;101425.94;5041787;28;20203;-69
2023/10/05 02:38:53;;;;;;;6.73;3.10;;;;;;;8.60;100.00;101426.78;5039580;28;20604;-70
2023/10/05 02:41:38;;;;;;;9.53;2.93;;;;;;;8.75;100.00;101430.91;5043472;28;20662;-69
2023/10/05 02:44:30;;;;;;;7.93;3.67;;;;;;;8.71;100.00;101423.69;5040057;28;20212;-69
2023/10/05 02:46:53;;;;;;;10.37;3.60;;;;;;;8.71;100.00;101430.72;5042297;28;20222;-70
2023/10/05 02:49:22;;;;;;;9.00;3.63;;;;;;;8.66;100.00;101427.91;5023195;28;20228;-69
2023/10/05 02:51:52;;;;;;;6.57;3.10;;;;;;;8.59;100.00;101431.16;5044238;28;21242;-69
2023/10/05 02:54:22;;;;;;;7.40;3.10;;;;;;;8.56;100.00;101427.50;5018611;28;20208;-69
2023/10/05 02:56:48;;;;;;;10.77;3.60;;;;;;;8.66;100.00;101427.00;5026260;28;20282;-71
2023/10/05 02:59:15;;;;;;;8.03;3.80;;;;;;;8.63;100.00;101425.16;5041022;28;20231;-70
2023/10/05 03:01:45;;;;;;;5.93;3.20;;;;;;;8.72;100.00;101432.53;5039463;28;20667;-69
2023/10/05 03:06:42;;;;;;;6.90;3.40;;;;;;;8.67;100.00;101427.06;5035584;28;20222;-71
2023/10/05 03:09:09;;;;;;;7.47;3.23;;;;;;;8.65;100.00;101435.78;5044547;28;20233;-70
2023/10/05 03:11:47;;;;;;;9.37;3.73;;;;;;;8.63;100.00;101440.09;5040419;28;20204;-70
2023/10/05 03:14:16;;;;;;;7.47;3.40;;;;;;;8.65;100.00;101436.69;5030067;28;20289;-69
2023/10/05 03:16:43;;;;;;;8.20;3.60;;;;;;;8.72;100.00;101430.78;5033665;28;20636;-70
2023/10/05 03:19:15;;;;;;;9.53;3.73;;;;;;;8.86;100.00;101446.25;5029054;28;20244;-70
2023/10/05 03:21:45;;;;;;;9.53;3.53;;;;;;;8.95;100.00;101443.97;5029928;28;20650;-69
2023/10/05 03:24:14;;;;;;;7.17;3.23;;;;;;;8.95;100.00;101442.22;5035763;28;20301;-70
2023/10/05 03:26:41;;;;;;;10.37;3.60;;;;;;;9.04;100.00;101449.56;5017735;28;20625;-71
2023/10/05 03:29:11;;;;;;;8.60;3.53;;;;;;;8.96;100.00;101443.13;5035128;28;20251;-69
2023/10/05 03:31:43;;;;;;;9.50;3.67;;;;;;;8.88;100.00;101431.38;5041948;28;20198;-69
2023/10/05 03:34:10;;;;;;;11.30;3.40;;;;;;;8.97;100.00;101447.56;5033794;28;20210;-68
2023/10/05 03:36:37;;;;;;;8.23;3.37;;;;;;;8.91;100.00;101436.75;5031483;28;20193;-70
2023/10/05 03:39:06;;;;;;;9.03;3.67;;;;;;;8.92;100.00;101436.81;5037192;28;20605;-71
2023/10/05 03:41:34;;;;;;;8.00;3.40;;;;;;;8.88;100.00;101437.56;5033789;28;20455;-71
2023/10/05 03:44:02;;;;;;;6.17;3.73;;;;;;;8.76;100.00;101424.75;5034986;28;20209;-69
2023/10/05 03:46:29;;;;;;;9.80;3.67;;;;;;;8.72;100.00;101427.25;5031165;28;20767;-69
2023/10/05 03:49:02;;;;;;;5.30;3.27;;;;;;;8.64;100.00;101432.25;5036267;28;20655;-69
2023/10/05 03:51:29;;;;;;;9.57;3.47;;;;;;;8.57;100.00;101422.28;5029859;28;20252;-69
2023/10/05 03:53:55;;;;;;;9.77;3.57;;;;;;;8.71;100.00;101426.34;5028700;28;20201;-71
2023/10/05 03:56:25;;;;;;;9.53;3.70;;;;;;;8.76;100.00;101435.34;5032429;28;20204;-70
2023/10/05 03:58:54;;;;;;;13.50;3.30;;;;;;;8.68;100.00;101426.22;5032920;28;20713;-71
2023/10/05 04:01:22;;;;;;;5.77;3.07;;;;;;;8.65;100.00;101434.03;5034018;28;20219;-70
2023/10/05 04:03:49;;;;;;;6.70;3.37;;;;;;;8.64;100.00;101426.06;5028875;28;20208;-71
2023/10/05 04:06:23;;;;;;;8.63;3.50;;;;;;;8.63;100.00;101430.44;5039757;28;20275;-70
2023/10/05 04:08:55;;;;;;;7.83;3.57;;;;;;;8.63;100.00;101424.25;5034374;28;20252;-70
2023/10/05 04:11:21;;;;;;;8.70;3.90;;;;;;;8.63;100.00;101425.16;5037535;28;20214;-70
2023/10/05 04:13:50;;;;;;;8.47;4.53;;;;;;;8.67;100.00;101416.50;5038416;28;20204;-71
2023/10/05 04:16:33;;;;;;;15.13;6.07;;;;;;;8.74;100.00;101433.47;5028011;28;20669;-70
2023/10/05 04:19:04;;;;;;;12.63;5.30;;;;;;;8.72;100.00;101419.31;5030654;28;20230;-69
2023/10/05 04:21:32;;;;;;;9.60;5.00;;;;;;;8.78;100.00;101415.16;5038055;28;20206;-71
2023/10/05 04:23:59;;;;;;;14.63;5.03;;;;;;;8.81;100.00;101408.22;5034161;28;20209;-69
2023/10/05 04:26:49;;;;;;;10.67;4.83;;;;;;;8.81;100.00;101411.75;5036469;28;20404;-70
2023/10/05 04:29:20;;;;;;;13.13;4.47;;;;;;;8.98;100.00;101413.25;5034780;28;20236;-71
2023/10/05 04:31:51;;;;;;;11.10;4.57;;;;;;;8.91;100.00;101405.97;5041895;28;20204;-69
2023/10/05 04:34:22;;;;;;;7.70;4.00;;;;;;;8.90;100.00;101413.84;5041730;28;20202;-71
2023/10/05 04:36:48;;;;;;;7.80;3.70;;;;;;;8.85;100.00;101410.13;5038160;28;20273;-70
2023/10/05 04:39:26;;;;;;;7.07;3.73;;;;;;;8.82;100.00;101405.63;5015824;28;20272;-70
2023/10/05 04:41:55;;;;;;;8.13;4.27;;;;;;;8.86;100.00;101409.28;5034333;28;20662;-70
2023/10/05 04:44:21;;;;;;;10.67;3.83;;;;;;;8.82;100.00;101404.75;5045239;28;20755;-69
2023/10/05 04:46:48;;;;;;;10.03;4.23;;;;;;;8.86;100.00;101426.03;5046888;28;20706;-69
2023/10/05 04:49:24;;;;;;;7.07;3.87;;;;;;;8.83;100.00;101415.34;5033362;28;20222;-69
2023/10/05 04:51:51;;;;;;;10.10;3.97;;;;;;;8.82;100.00;101417.94;5035020;28;20207;-72
2023/10/05 04:54:25;;;;;;;9.17;4.97;;;;;;;8.82;100.00;101416.19;5038410;28;20204;-74
2023/10/05 04:59:24;;;;;;;9.43;4.33;;;;;;;8.84;100.00;101417.16;5043458;28;20252;-73
2023/10/05 05:07:07;;;;;;;9.47;4.30;;;;;;;8.77;100.00;101412.47;5032588;28;20226;-73
2023/10/05 05:09:41;;;;;;;8.53;4.73;;;;;;;8.77;100.00;101417.75;5032255;28;20227;-75
2023/10/05 05:12:24;;;;;;;10.83;4.60;;;;;;;8.83;100.00;101414.47;5035364;28;20199;-77
2023/10/05 05:14:54;;;;;;;9.63;4.20;;;;;;;8.83;100.00;101418.00;5027760;28;20226;-73
2023/10/05 05:17:23;;;;;;;9.60;4.43;;;;;;;8.79;100.00;101419.59;5036238;28;20201;-75
2023/10/05 05:19:52;;;;;;;10.67;4.83;;;;;;;8.87;100.00;101426.94;5032396;28;20227;-73
2023/10/05 05:22:19;;;;;;;9.80;4.77;;;;;;;8.84;100.00;101418.91;5039624;28;20210;-71
2023/10/05 05:24:46;;;;;;;11.53;4.77;;;;;;;8.90;100.00;101429.69;5031139;28;20260;-73
2023/10/05 05:29:45;;;;;;;11.87;5.40;;;;;;;8.87;100.00;101434.84;5039126;28;20228;-71
2023/10/05 05:32:15;;;;;;;8.70;4.57;;;;;;;8.96;100.00;101446.66;5042387;28;20657;-71
2023/10/05 05:34:42;;;;;;;9.17;4.20;;;;;;;9.05;100.00;101441.69;5032402;28;20276;-69
2023/10/05 05:37:13;;;;;;;10.33;3.60;;;;;;;9.10;100.00;101441.84;5034750;28;20288;-68
2023/10/05 05:39:40;;;;;;;9.40;4.00;;;;;;;9.09;100.00;101440.97;5033319;28;20598;-69
2023/10/05 05:42:13;;;;;;;6.97;3.63;;;;;;;9.05;100.00;101446.97;5038672;28;20913;-70
2023/10/05 05:44:43;;;;;;;11.10;4.10;;;;;;;9.02;100.00;101444.22;5029029;28;20288;-69
2023/10/05 05:47:10;;;;;;;8.67;4.07;;;;;;;9.06;100.00;101438.22;5032423;28;20236;-74
2023/10/05 05:49:40;;;;;;;9.83;3.73;;;;;;;9.07;100.00;101433.81;5032142;28;20281;-76
2023/10/05 05:52:08;;;;;;;11.27;4.13;;;;;;;9.07;100.00;101434.72;5038198;28;20233;-76
2023/10/05 05:54:38;;;;;;;9.13;3.90;;;;;;;9.05;100.00;101438.16;5038812;28;20206;-74
2023/10/05 05:57:08;;;;;;;8.33;4.17;;;;;;;9.12;100.00;101445.47;5030225;28;20196;-77
2023/10/05 05:59:34;;;;;;;8.43;3.60;;;;;;;9.13;100.00;101435.78;5028657;28;20220;-75
2023/10/05 06:02:11;;;;;;;10.20;4.30;;;;;;;9.12;100.00;101440.16;5031988;28;20205;-80
2023/10/05 06:04:39;;;;;;;9.23;3.90;;;;;;;9.16;100.00;101446.47;5041610;28;20259;-77
2023/10/05 06:07:13;;;;;;;10.27;4.47;;;;;;;9.25;100.00;101444.19;5031998;28;20219;-77
2023/10/05 06:09:42;;;;;;;10.73;4.17;;;;;;;9.28;100.00;101439.91;5036388;28;20222;-77
2023/10/05 06:12:13;;;;;;;9.13;4.77;;;;;;;9.35;100.00;101441.91;5018156;28;20269;-79
2023/10/05 06:14:42;;;;;;;11.47;4.40;;;;;;;9.42;100.00;101437.72;5029721;28;20219;-77
2023/10/05 06:17:10;;;;;;;8.37;4.10;;;;;;;9.48;100.00;101447.59;5032034;28;20663;-76
2023/10/05 06:19:37;;;;;;;12.93;5.17;;;;;;;9.62;100.00;101449.00;5028717;28;20261;-79
2023/10/05 06:22:06;;;;;;;11.57;4.40;;;;;;;9.68;100.00;101442.16;5033846;28;20559;-80
2023/10/05 06:24:41;;;;;;;12.50;5.30;;;;;;;9.79;100.00;101446.91;5038090;28;20199;-79
2023/10/05 06:27:08;;;;;;;11.10;5.23;;;;;;;9.84;100.00;101434.72;5037176;28;20214;-76
2023/10/05 06:29:34;;;;;;;9.23;4.10;;;;;;;9.96;100.00;101453.66;5040712;28;20231;-77
2023/10/05 06:32:02;;;;;;;10.23;5.37;;;;;;;10.08;100.00;101429.34;5033596;28;20203;-76
2023/10/05 06:34:29;;;;;;;12.97;5.63;;;;;;;10.12;100.00;101433.91;5036228;28;20200;-71
2023/10/05 06:36:55;;;;;;;7.73;4.97;;;;;;;10.17;100.00;101437.56;5034937;28;20215;-78
2023/10/05 06:39:27;;;;;;;16.83;5.87;;;;;;;10.26;100.00;101437.91;5032323;28;20669;-75
2023/10/05 06:41:53;;;;;;;13.50;5.97;;;;;;;10.28;100.00;101425.59;5036127;28;20198;-77
2023/10/05 06:44:20;;;;;;;11.50;6.13;;;;;;;10.40;100.00;101425.97;5032759;28;20202;-71
2023/10/05 06:46:47;;;;;;;14.10;5.90;;;;;;;10.53;100.00;101437.84;5034754;28;20207;-71
2023/10/05 06:49:14;;;;;;;12.10;5.53;;;;;;;10.61;100.00;101439.88;5034156;28;20718;-69
2023/10/05 06:51:43;;;;;;;10.90;5.70;;;;;;;10.70;100.00;101443.66;5030003;28;20633;-70
2023/10/05 06:54:14;;;;;;;12.40;5.43;;;;;;;10.78;100.00;101437.72;5044343;28;20210;-70
2023/10/05 06:56:41;;;;;;;12.77;5.60;;;;;;;10.92;100.00;101451.38;5035878;28;20209;-69
2023/10/05 06:59:08;;;;;;;13.73;5.43;;;;;;;11.06;100.00;101457.06;5015723;28;20303;-68
2023/10/05 07:01:34;;;;;;;11.80;5.63;;;;;;;11.15;100.00;101463.53;5033425;28;20213;-69
2023/10/05 07:04:01;;;;;;;10.47;5.40;;;;;;;11.25;100.00;101460.31;5032286;28;20211;-69
2023/10/05 07:06:32;;;;;;;13.10;5.73;;;;;;;11.33;100.00;101471.13;5037584;28;20295;-71
2023/10/05 07:08:59;;;;;;;12.50;5.60;;;;;;;11.30;100.00;101479.00;5040610;28;20226;-70
2023/10/05 07:11:26;;;;;;;9.70;5.10;;;;;;;11.37;100.00;101477.41;5016074;28;20209;-72
2023/10/05 07:13:52;;;;;;;12.13;4.97;;;;;;;11.47;100.00;101488.31;5022472;28;20210;-69
2023/10/05 07:16:19;;;;;;;9.07;4.90;;;;;;;11.59;100.00;101480.66;5031255;28;20358;-69
2023/10/05 07:18:46;;;;;;;13.37;5.20;;;;;;;11.71;100.00;101473.91;5039561;28;20726;-72
2023/10/05 07:21:12;;;;;;;8.00;4.43;;;;;;;11.91;100.00;101484.19;5034555;28;20730;-70
2023/10/05 07:23:41;;;;;;;8.53;4.90;;;;;;;12.07;100.00;101476.63;5033096;28;20200;-67
2023/10/05 07:26:11;;;;;;;10.43;5.00;;;;;;;12.30;100.00;101483.38;5029937;28;20750;-69
2023/10/05 07:28:39;;;;;;;10.43;5.10;;;;;;;12.55;100.00;101493.75;5041399;28;20218;-69
2023/10/05 07:31:06;;;;;;;14.37;4.90;;;;;;;12.66;100.00;101493.97;5041738;28;20687;-70
2023/10/05 07:33:36;;;;;;;9.73;4.50;;;;;;;12.68;100.00;101494.91;5035401;28;20211;-70
2023/10/05 07:36:03;;;;;;;11.33;4.67;;;;;;;12.84;100.00;101490.84;5030046;28;20672;-71
2023/10/05 07:38:30;;;;;;;8.23;4.53;;;;;;;12.99;100.00;101492.91;5034490;28;20219;-68
2023/10/05 07:40:57;;;;;;;9.57;4.67;;;;;;;13.10;100.00;101488.72;5031146;28;20227;-68
2023/10/05 07:43:24;;;;;;;10.43;4.27;;;;;;;13.11;100.00;101474.56;5029551;28;20387;-65
2023/10/05 07:45:50;;;;;;;9.23;4.00;;;;;;;13.27;100.00;101495.31;5036243;28;20294;-68
2023/10/05 07:48:19;;;;;;;9.10;4.10;;;;;;;13.44;100.00;101495.66;5027955;28;20238;-69
2023/10/05 07:50:48;;;;;;;9.73;4.07;;;;;;;13.55;100.00;101498.50;5034786;28;20200;-67
2023/10/05 07:53:16;;;;;;;10.43;4.20;;;;;;;13.64;100.00;101496.03;5030547;28;20285;-68
2023/10/05 07:55:42;;;;;;;8.50;4.87;;;;;;;13.77;100.00;101488.31;5028549;28;20210;-72
2023/10/05 07:58:09;;;;;;;7.50;4.10;;;;;;;13.89;100.00;101486.72;5030879;28;20227;-70
2023/10/05 08:00:36;;;;;;;9.43;4.77;;;;;;;13.88;100.00;101493.81;5033745;28;20242;-69
2023/10/05 08:03:04;;;;;;;8.23;3.90;;;;;;;14.02;100.00;101500.28;5038448;28;20292;-71
2023/10/05 08:05:32;;;;;;;8.20;4.13;;;;;;;14.13;100.00;101478.25;5032821;28;20277;-69
2023/10/05 08:07:59;;;;;;;10.17;3.77;;;;;;;14.17;100.00;101486.31;5031647;28;20219;-69
2023/10/05 08:10:25;;;;;;;10.10;3.77;;;;;;;14.07;100.00;101497.69;5034820;28;20287;-69
2023/10/05 08:12:53;;;;;;;9.07;4.10;;;;;;;14.03;100.00;101506.50;5044821;28;20206;-69
2023/10/05 08:15:19;;;;;;;9.07;4.00;;;;;;;13.99;100.00;101510.88;5040590;28;20614;-71
2023/10/05 08:17:48;;;;;;;10.37;4.03;;;;;;;14.14;100.00;101499.59;5035186;28;20204;-70
2023/10/05 08:20:17;;;;;;;12.83;4.33;;;;;;;14.07;100.00;101492.38;5020385;22;20255;-73
2023/10/05 08:22:50;;;;;;;7.30;4.13;;;;;;;14.01;100.00;101517.16;4989331;28;20769;-79
2023/10/05 08:25:16;;;;;;;10.47;4.80;;;;;;;14.10;100.00;101524.41;4990638;28;20201;-78
2023/10/05 08:27:43;;;;;;;8.20;4.10;;;;;;;14.23;100.00;101518.38;4993591;28;20697;-78
2023/10/05 08:30:13;;;;;;;12.23;4.70;;;;;;;14.44;100.00;101512.56;4994447;28;20326;-77
2023/10/05 08:32:40;;;;;;;8.90;4.40;;;;;;;14.66;100.00;101519.09;4992265;28;20247;-76
2023/10/05 08:35:13;;;;;;;7.80;4.33;;;;;;;14.90;100.00;101518.56;4990700;28;20216;-73
2023/10/05 08:37:48;;;;;;;9.53;4.40;;;;;;;15.18;100.00;101522.47;4992252;28;20205;-72
2023/10/05 08:40:37;;;;;;;9.60;4.73;;;;;;;15.17;100.00;101532.25;4991263;28;20230;-72
2023/10/05 08:43:10;;;;;;;11.00;4.57;;;;;;;15.17;100.00;101537.59;4992744;28;20223;-72
2023/10/05 08:45:51;;;;;;;6.27;3.90;;;;;;;15.24;100.00;101531.47;4990938;28;20205;-72
2023/10/05 08:48:40;;;;;;;8.00;3.97;;;;;;;15.54;100.00;101514.91;4991467;28;20221;-71
2023/10/05 08:51:11;;;;;;;8.77;4.03;;;;;;;15.79;100.00;101515.22;4969107;28;20339;-71
2023/10/05 08:53:44;;;;;;;8.93;3.70;;;;;;;15.91;100.00;101509.97;4988899;28;20201;-71
2023/10/05 08:56:15;;;;;;;11.80;3.60;;;;;;;15.92;100.00;101518.00;4973864;28;20576;-72
2023/10/05 08:58:45;;;;;;;9.27;3.90;;;;;;;15.95;100.00;101523.38;4991471;28;20232;-72
2023/10/05 09:01:25;;;;;;;6.10;3.30;;;;;;;16.08;100.00;101527.09;4982020;28;20205;-70
2023/10/05 09:04:01;;;;;;;8.10;3.30;;;;;;;16.23;100.00;101534.34;4980062;28;20275;-70
2023/10/05 09:06:30;;;;;;;10.37;3.20;;;;;;;16.25;100.00;101535.25;4972400;28;20672;-69
2023/10/05 09:09:07;;;;;;;8.50;3.10;;;;;;;16.28;100.00;101528.13;4972200;28;20244;-70
2023/10/05 09:11:34;;;;;;;6.90;3.67;;;;;;;16.44;100.00;101515.81;4991186;28;20201;-70
2023/10/05 09:14:12;;;;;;;7.07;3.30;;;;;;;16.69;100.00;101513.31;4989296;28;20622;-70
2023/10/05 09:16:41;;;;;;;7.53;3.50;;;;;;;16.90;100.00;101514.34;4989759;28;20299;-71
2023/10/05 09:19:13;;;;;;;7.83;2.93;;;;;;;17.11;100.00;101510.88;4990099;28;20799;-70
2023/10/05 09:21:50;;;;;;;7.37;3.47;;;;;;;16.99;100.00;101515.28;4972899;28;20742;-71
2023/10/05 09:24:22;;;;;;;7.33;3.00;;;;;;;17.09;100.00;101526.03;4989135;28;20256;-71
2023/10/05 09:26:57;;;;;;;8.27;3.00;;;;;;;17.32;100.00;101528.84;4985347;28;20220;-71
2023/10/05 09:29:33;;;;;;;10.07;3.23;;;;;;;17.28;100.00;101527.03;4989784;28;20243;-72
2023/10/05 09:31:59;;;;;;;7.20;3.17;;;;;;;17.19;100.00;101530.53;4981760;28;20712;-70
2023/10/05 09:34:37;;;;;;;11.83;3.27;;;;;;;17.10;100.00;101533.19;4988145;28;20212;-71
2023/10/05 09:37:05;;;;;;;8.73;2.93;;;;;;;17.01;100.00;101526.88;4990383;28;20205;-69
2023/10/05 09:39:42;;;;;;;7.80;3.00;;;;;;;17.31;100.00;101524.38;4989693;28;20227;-70
2023/10/05 09:42:16;;;;;;;6.90;3.27;;;;;;;17.56;100.00;101533.34;4987215;28;20295;-71
2023/10/05 09:44:53;;;;;;;9.50;3.17;;;;;;;17.54;100.00;101538.72;4988309;28;20205;-71
2023/10/05 09:47:26;;;;;;;6.60;2.50;;;;;;;17.63;99.82;101542.34;4971266;28;20207;-70
2023/10/05 09:49:55;;;;;;;8.00;3.20;;;;;;;17.75;98.08;101542.41;4990055;28;20248;-70
2023/10/05 09:52:31;;;;;;;8.17;2.60;;;;;;;17.71;95.02;101546.84;4990642;28;20205;-69
2023/10/05 09:54:59;;;;;;;5.60;2.73;;;;;;;17.70;98.17;101539.72;4988189;28;20196;-70
2023/10/05 09:57:26;;;;;;;8.17;2.77;;;;;;;17.59;98.60;101537.81;4974246;28;20211;-70
2023/10/05 09:59:59;;;;;;;6.33;3.13;;;;;;;17.29;100.00;101546.66;4990127;28;20217;-70
2023/10/05 10:02:33;;;;;;;7.10;2.90;;;;;;;17.32;100.00;101544.91;4985714;28;20263;-70
2023/10/05 10:05:22;;;;;;;6.07;2.70;;;;;;;17.32;100.00;101538.66;4986511;28;20227;-71
2023/10/05 10:07:50;;;;;;;9.63;3.57;;;;;;;17.35;100.00;101544.91;4983142;28;20205;-70
2023/10/05 10:10:19;;;;;;;7.50;3.10;;;;;;;17.58;100.00;101547.66;4982244;28;20626;-70
2023/10/05 10:12:47;;;;;;;6.77;3.07;;;;;;;17.77;100.00;101548.66;4987532;28;20207;-72
2023/10/05 10:15:33;;;;;;;7.70;3.10;;;;;;;17.58;100.00;101544.97;4990562;28;20213;-70
2023/10/05 10:18:16;;;;;;;9.43;3.90;;;;;;;17.49;100.00;101544.94;4986613;28;20333;-72
2023/10/05 10:20:51;;;;;;;8.10;3.20;;;;;;;17.38;100.00;101544.91;4987616;28;20874;-72
2023/10/05 10:23:44;;;;;;;8.37;3.10;;;;;;;17.10;100.00;101543.00;4969156;28;20211;-71
2023/10/05 10:26:24;;;;;;;10.40;3.47;;;;;;;17.05;100.00;101548.31;4981860;28;20256;-68
2023/10/05 10:31:47;;;;;;;7.67;3.87;;;;;;;17.16;100.00;101541.22;4984413;28;20208;-70
2023/10/05 10:34:28;;;;;;;6.23;3.30;;;;;;;17.20;100.00;101534.09;4967958;28;20204;-70
2023/10/05 10:36:56;;;;;;;9.53;3.20;;;;;;;17.36;100.00;101540.44;4986319;28;20236;-70
2023/10/05 10:39:27;;;;;;;10.33;3.73;;;;;;;17.59;100.00;101546.75;4987575;28;20221;-70
2023/10/05 10:42:04;;;;;;;7.97;3.60;;;;;;;17.58;100.00;101557.47;4980943;28;20219;-70
2023/10/05 10:44:56;;;;;;;8.43;3.33;;;;;;;17.67;100.00;101558.47;4987770;28;20220;-70
2023/10/05 10:47:22;;;;;;;7.40;3.00;;;;;;;17.71;100.00;101552.22;4987890;28;20278;-70
2023/10/05 10:50:15;;;;;;;5.30;2.40;;;;;;;17.66;100.00;101550.38;4982070;28;20331;-70
2023/10/05 10:52:45;;;;;;;8.90;3.20;;;;;;;17.77;100.00;101548.66;4976104;28;20217;-70
2023/10/05 10:55:15;;;;;;;7.73;2.50;;;;;;;17.82;100.00;101554.91;4979070;28;20299;-70
2023/10/05 10:57:46;;;;;;;8.77;2.80;;;;;;;17.95;100.00;101547.78;4986448;28;20696;-70
2023/10/05 11:03:09;;;;;;;6.13;2.63;;;;;;;17.72;100.00;101542.38;4983994;28;20268;-70
2023/10/05 11:05:39;;;;;;;4.77;2.00;;;;;;;17.72;100.00;101547.75;4984299;28;20209;-72
2023/10/05 11:08:11;;;;;;;6.23;2.40;;;;;;;17.56;100.00;101541.41;4986908;28;20209;-71
2023/10/05 11:10:40;;;;;;;7.13;2.20;;;;;;;17.46;100.00;101536.91;4985743;28;20575;-71
2023/10/05 11:13:19;;;;;;;6.27;2.33;;;;;;;17.43;100.00;101528.88;4986834;28;20327;-70
2023/10/05 11:15:58;;;;;;;6.03;2.30;;;;;;;17.44;100.00;101522.63;4986147;28;20445;-72
2023/10/05 11:18:31;;;;;;;5.30;2.67;;;;;;;17.47;100.00;101514.59;4988105;28;20232;-71
2023/10/05 11:21:13;;;;;;;5.93;2.30;;;;;;;17.54;100.00;101519.97;4991712;28;20734;-72
2023/10/05 11:23:50;;;;;;;5.57;2.23;;;;;;;17.61;100.00;101528.00;4983061;28;20304;-71
2023/10/05 11:26:26;;;;;;;4.80;2.30;;;;;;;17.74;100.00;101532.56;4983037;28;20299;-71
2023/10/05 11:28:58;;;;;;;6.77;1.87;;;;;;;17.89;100.00;101523.66;4987426;28;20724;-71
2023/10/05 11:31:33;;;;;;;3.43;2.00;;;;;;;18.02;99.60;101521.00;4989328;28;20215;-71
2023/10/05 11:34:22;;;;;;;6.50;2.50;;;;;;;18.16;96.12;101516.53;4984714;28;20201;-71
2023/10/05 11:37:16;;;;;;;4.90;2.00;;;;;;;18.17;96.91;101496.88;4988663;28;20215;-71
2023/10/05 11:39:49;;;;;;;5.18;2.05;;;;;;;18.28;97.51;101487.94;4982020;28;20232;-71
2023/10/05 11:42:24;;;;;;;4.85;1.70;;;;;;;18.35;97.22;101468.25;4970402;28;20311;-71
2023/10/05 11:44:56;;;;;;;7.68;2.50;;;;;;;18.33;98.05;101456.63;4982540;28;20227;-71
2023/10/05 11:47:35;;;;;;;6.40;2.47;;;;;;;18.22;94.26;101434.31;4991973;28;20203;-71
2023/10/05 11:50:08;;;;;;;6.68;2.80;;;;;;;18.23;96.63;101436.97;4975676;28;20224;-71
2023/10/05 11:52:38;;;;;;;5.43;2.40;;;;;;;18.08;92.21;101478.13;4984285;28;20632;-71
2023/10/05 11:55:11;;;;;;;4.55;2.00;;;;;;;18.02;94.38;101496.88;4974850;28;20201;-70
2023/10/05 11:57:40;;;;;;;3.55;1.88;;;;;;;17.86;96.77;101503.09;4991042;28;20201;-71
2023/10/05 12:00:16;;;;;;;6.30;2.40;;;;;;;17.71;99.42;101506.66;4974228;28;20654;-71
2023/10/05 12:02:43;;;;;;;7.13;2.13;;;;;;;17.73;100.00;101512.03;4984691;28;20209;-68